Airfield :
LOGIN :

Register | Disclaimer

   EN    FR    IT 

 










Legend :    VFR   Marginal VFR   IFR   Intensive IFR   Very Intensive IFR
Visi :
Ceiling :
>= 8 km
>= 3000ft
5 to 8 km
1000 to 3000 ft
1500m to 5 km
500 to 1000 ft
800 to 1500m
200 to 500 ft
< 800m
< 200 ft
Symbols :   Thunderstorms  Fog  Heavy snow  Heavy precipitations  Wind > 20 kt
SIGMETs :     Misc.  Thunderstorms  Icing  Turbulence  Mountain Waves  Volcanic Ashes






- Airport Elevation : 459 ft
- IATA code : CER


LFRC - Cherbourg / Maupertus

CURRENT METAR :
  • 300200Z AUTO 19005KT 9999 OVC037 12/11 Q1014

EXPIRED METARs :
  • 300130Z AUTO 19005KT 9999 FEW028 OVC037 12/11 Q1014
  • 300100Z AUTO 19004KT 9999 SCT029 OVC036 12/11 Q1015
  • 300030Z AUTO 20005KT 9999 BKN031 OVC038 12/10 Q1015
  • 300000Z AUTO 21004KT 9999 OVC031 12/11 Q1015
  • 292330Z AUTO 22004KT 9999 OVC032 12/10 Q1015
  • 292300Z AUTO 19004KT 9999 OVC035 12/11 Q1016

Expired Forecast.



MET'MAP, your aeronautical weather chart ! - Copyright ORBIFLY December 2007 - Disclaimer

ORBIFLY MET'MAP TEAM :

Programming & Development : Alexandra Zaïnal
Concept & original design : Baudouin d'Aumeries
Assistance for programming : Marc-Olivier Méhu
Technical & hardware support : Manuel Goepfert

Contact : metmap@orbifly.com




SOURCES & CREDITS :

   NOAA